createdAt,value
2023-05-15T00:01:33.968Z,11.62
2023-05-15T00:04:02.298Z,11.69
2023-05-15T00:06:30.395Z,11.64
2023-05-15T00:08:58.593Z,11.64
2023-05-15T00:11:28.020Z,11.64
2023-05-15T00:13:56.090Z,11.64
2023-05-15T00:16:24.755Z,11.65
2023-05-15T00:18:53.236Z,11.66
2023-05-15T00:21:21.407Z,11.65
2023-05-15T00:23:49.842Z,11.65
2023-05-15T00:26:18.155Z,11.64
2023-05-15T00:28:46.522Z,11.66
2023-05-15T00:31:15.553Z,11.64
2023-05-15T00:33:43.995Z,11.61
2023-05-15T00:36:12.210Z,11.63
2023-05-15T00:38:40.709Z,11.63
2023-05-15T00:41:11.257Z,11.65
2023-05-15T00:43:40.544Z,11.66
2023-05-15T00:46:10.422Z,11.67
2023-05-15T00:48:39.478Z,11.68
2023-05-15T00:51:09.208Z,11.69
2023-05-15T00:53:38.628Z,11.71
2023-05-15T00:56:09.320Z,11.72
2023-05-15T00:58:38.455Z,11.71
2023-05-15T01:01:08.435Z,11.71
2023-05-15T01:03:38.234Z,11.71
2023-05-15T01:06:06.727Z,11.68
2023-05-15T01:08:56.319Z,11.68
2023-05-15T01:11:35.932Z,11.67
2023-05-15T01:14:06.198Z,11.65
2023-05-15T01:16:36.006Z,11.68
2023-05-15T01:19:04.957Z,11.69
2023-05-15T01:22:00.172Z,11.69
2023-05-15T01:24:43.405Z,11.67
2023-05-15T01:27:48.805Z,11.67
2023-05-15T01:30:27.344Z,11.67
2023-05-15T01:33:43.939Z,11.68
2023-05-15T01:36:24.629Z,11.68
2023-05-15T01:38:59.157Z,11.67
2023-05-15T01:41:41.863Z,11.70
2023-05-15T01:44:22.436Z,11.69
2023-05-15T01:46:57.748Z,11.71
2023-05-15T01:49:32.064Z,11.69
2023-05-15T01:52:06.629Z,11.69
2023-05-15T01:54:36.337Z,11.68
2023-05-15T01:57:06.605Z,11.70
2023-05-15T01:59:36.419Z,11.67
2023-05-15T02:02:06.201Z,11.67
2023-05-15T02:04:35.651Z,11.66
2023-05-15T02:07:04.982Z,11.67
2023-05-15T02:09:33.328Z,11.68
2023-05-15T02:12:04.226Z,11.68
2023-05-15T02:14:33.267Z,11.67
2023-05-15T02:17:01.608Z,11.66
2023-05-15T02:19:30.001Z,11.65
2023-05-15T02:21:59.230Z,11.66
2023-05-15T02:24:27.588Z,11.67
2023-05-15T02:27:12.591Z,11.69
2023-05-15T02:29:55.952Z,11.66
2023-05-15T02:32:37.065Z,11.65
2023-05-15T02:35:19.491Z,11.63
2023-05-15T02:37:55.144Z,11.58
2023-05-15T02:40:25.001Z,11.59
2023-05-15T02:42:54.383Z,11.56
2023-05-15T02:45:24.716Z,11.58
2023-05-15T02:47:54.002Z,11.55
2023-05-15T02:50:22.970Z,11.59
2023-05-15T02:52:51.157Z,11.61
2023-05-15T02:55:19.990Z,11.64
2023-05-15T02:57:48.365Z,11.60
2023-05-15T03:00:17.618Z,11.59
2023-05-15T03:02:46.131Z,11.60
2023-05-15T03:05:14.524Z,11.61
2023-05-15T03:07:43.337Z,11.64
2023-05-15T03:10:11.674Z,11.63
2023-05-15T03:12:40.069Z,11.67
2023-05-15T03:15:08.673Z,11.69
2023-05-15T03:17:37.489Z,11.70
2023-05-15T03:20:07.560Z,11.73
2023-05-15T03:22:35.928Z,11.73
2023-05-15T03:25:04.487Z,11.76
2023-05-15T03:27:32.573Z,11.75
2023-05-15T03:30:00.746Z,11.74
2023-05-15T03:32:29.073Z,11.76
2023-05-15T03:34:57.292Z,11.77
2023-05-15T03:37:25.413Z,11.77
2023-05-15T03:39:53.816Z,11.77
2023-05-15T03:42:23.753Z,11.77
2023-05-15T03:44:51.984Z,11.77
2023-05-15T03:47:20.647Z,11.75
2023-05-15T03:49:48.842Z,11.75
2023-05-15T03:52:17.025Z,11.73
2023-05-15T03:54:46.213Z,11.72
2023-05-15T03:57:14.357Z,11.71
2023-05-15T03:59:42.413Z,11.70
2023-05-15T04:02:10.868Z,11.70
2023-05-15T04:04:39.786Z,11.72
2023-05-15T04:07:07.907Z,11.76
2023-05-15T04:09:35.958Z,11.77
2023-05-15T04:12:04.879Z,11.78
2023-05-15T04:14:32.881Z,11.81
2023-05-15T04:17:01.045Z,11.83
2023-05-15T04:19:29.716Z,11.86
2023-05-15T04:21:57.788Z,11.88
2023-05-15T04:24:25.900Z,11.90
2023-05-15T04:26:54.490Z,11.95
2023-05-15T04:29:22.690Z,11.93
2023-05-15T04:31:51.030Z,11.95
2023-05-15T04:34:19.637Z,11.98
2023-05-15T04:36:48.657Z,12.00
2023-05-15T04:39:16.765Z,12.03
2023-05-15T04:41:45.422Z,12.04
2023-05-15T04:44:13.581Z,12.04
2023-05-15T04:46:41.779Z,12.05
2023-05-15T04:49:10.332Z,12.08
2023-05-15T04:51:38.475Z,12.13
2023-05-15T04:54:06.904Z,12.11
2023-05-15T04:56:36.187Z,12.06
2023-05-15T04:59:04.408Z,12.06
2023-05-15T05:01:32.547Z,12.07
2023-05-15T05:04:01.227Z,12.06
2023-05-15T05:06:30.430Z,12.06
2023-05-15T05:08:58.883Z,12.04
2023-05-15T05:11:27.236Z,12.05
2023-05-15T05:13:55.438Z,12.06
2023-05-15T05:16:23.571Z,12.09
2023-05-15T05:18:52.108Z,12.08
2023-05-15T05:21:20.261Z,12.06
2023-05-15T05:23:48.313Z,12.08
2023-05-15T05:26:16.856Z,12.13
2023-05-15T05:28:47.850Z,12.12
2023-05-15T05:31:16.465Z,12.16
2023-05-15T05:33:47.488Z,12.15
2023-05-15T05:36:16.019Z,12.12
2023-05-15T05:38:44.421Z,12.18
2023-05-15T05:41:12.734Z,12.22
2023-05-15T05:43:40.882Z,12.26
2023-05-15T05:46:09.343Z,12.23
2023-05-15T05:48:37.780Z,12.35
2023-05-15T05:51:06.003Z,12.41
2023-05-15T05:53:34.520Z,12.45
2023-05-15T05:56:02.692Z,12.50
2023-05-15T05:58:31.078Z,12.59
2023-05-15T06:01:00.805Z,12.60
2023-05-15T06:03:29.626Z,12.61
2023-05-15T06:05:57.731Z,12.52
2023-05-15T06:08:25.834Z,12.53
2023-05-15T06:10:54.240Z,12.57
2023-05-15T06:13:22.194Z,12.63
2023-05-15T06:15:51.243Z,12.57
2023-05-15T06:18:19.743Z,12.57
2023-05-15T06:20:47.980Z,12.62
2023-05-15T06:23:16.044Z,12.66
2023-05-15T06:25:44.479Z,12.58
2023-05-15T06:28:12.516Z,12.67
2023-05-15T06:30:40.568Z,12.73
2023-05-15T06:33:09.291Z,12.76
2023-05-15T06:35:37.556Z,12.85
2023-05-15T06:38:05.686Z,12.96
2023-05-15T06:40:34.301Z,13.08
2023-05-15T06:43:02.367Z,13.24
2023-05-15T06:45:30.554Z,13.09
2023-05-15T06:48:01.584Z,13.18
2023-05-15T06:50:30.128Z,13.14
2023-05-15T06:52:58.666Z,13.29
2023-05-15T06:55:27.296Z,13.33
2023-05-15T06:57:55.571Z,13.40
2023-05-15T07:00:24.026Z,13.44
2023-05-15T07:02:52.207Z,13.36
2023-05-15T07:05:21.840Z,13.38
2023-05-15T07:07:50.211Z,13.42
2023-05-15T07:10:18.358Z,13.40
2023-05-15T07:12:46.494Z,13.42
2023-05-15T07:15:14.892Z,13.31
2023-05-15T07:17:43.271Z,13.31
2023-05-15T07:20:11.633Z,13.31
2023-05-15T07:22:52.068Z,13.24
2023-05-15T07:25:24.673Z,13.22
2023-05-15T07:27:53.725Z,13.23
2023-05-15T07:30:22.920Z,13.22
2023-05-15T07:32:51.442Z,13.24
2023-05-15T07:35:19.857Z,13.25
2023-05-15T07:37:48.010Z,13.22
2023-05-15T07:40:16.103Z,13.24
2023-05-15T07:42:45.359Z,13.22
2023-05-15T07:45:13.669Z,13.23
2023-05-15T07:47:46.664Z,13.20
2023-05-15T07:50:15.816Z,13.19
2023-05-15T07:52:44.586Z,13.27
2023-05-15T07:55:13.149Z,13.36
2023-05-15T07:57:41.528Z,13.45
2023-05-15T08:00:13.458Z,13.54
2023-05-15T08:02:46.271Z,13.62
2023-05-15T08:05:14.766Z,13.55
2023-05-15T08:07:43.216Z,13.65
2023-05-15T08:10:11.365Z,13.68
2023-05-15T08:12:39.430Z,13.74
2023-05-15T08:15:08.620Z,13.85
2023-05-15T08:17:36.682Z,14.24
2023-05-15T08:20:05.556Z,14.40
2023-05-15T08:22:34.155Z,14.37
2023-05-15T08:25:03.947Z,14.24
2023-05-15T08:27:32.127Z,14.18
2023-05-15T08:30:00.592Z,14.02
2023-05-15T08:32:28.732Z,14.07
2023-05-15T08:34:58.125Z,14.00
2023-05-15T08:37:26.495Z,14.00
2023-05-15T08:39:54.577Z,14.09
2023-05-15T08:42:53.149Z,14.22
2023-05-15T08:45:21.739Z,14.34
2023-05-15T08:47:50.116Z,14.36
2023-05-15T08:50:19.316Z,14.41
2023-05-15T08:52:48.440Z,14.54
2023-05-15T08:55:17.442Z,14.67
2023-05-15T08:57:47.706Z,14.64
2023-05-15T09:00:18.007Z,14.73
2023-05-15T09:02:46.327Z,14.72
2023-05-15T09:05:14.421Z,14.81
2023-05-15T09:07:45.058Z,14.84
2023-05-15T09:10:14.221Z,14.83
2023-05-15T09:12:47.188Z,14.91
2023-05-15T09:15:18.047Z,15.09
2023-05-15T09:17:46.757Z,15.12
2023-05-15T09:20:33.015Z,15.10
2023-05-15T09:23:04.169Z,15.04
2023-05-15T09:25:40.522Z,15.22
2023-05-15T09:28:11.676Z,15.63
2023-05-15T09:30:42.636Z,15.84
2023-05-15T09:33:11.396Z,16.55
2023-05-15T09:35:40.673Z,16.91
2023-05-15T09:38:11.615Z,16.70
2023-05-15T09:40:43.254Z,16.67
2023-05-15T09:43:14.612Z,16.40
2023-05-15T09:45:43.228Z,16.12
2023-05-15T09:48:12.279Z,15.82
2023-05-15T09:50:41.900Z,15.75
2023-05-15T09:53:12.885Z,15.65
2023-05-15T09:55:43.508Z,15.55
2023-05-15T09:58:14.669Z,15.52
2023-05-15T10:00:48.610Z,15.63
2023-05-15T10:03:21.957Z,15.46
2023-05-15T10:05:50.871Z,15.41
2023-05-15T10:08:29.244Z,15.43
2023-05-15T10:11:00.412Z,15.74
2023-05-15T10:13:31.655Z,15.98
2023-05-15T10:16:02.323Z,16.02
2023-05-15T10:18:33.864Z,16.09
2023-05-15T10:21:04.810Z,16.41
2023-05-15T10:23:36.390Z,16.47
2023-05-15T10:26:26.942Z,16.68
2023-05-15T10:28:57.525Z,16.72
2023-05-15T10:31:26.558Z,16.41
2023-05-15T10:33:55.605Z,16.40
2023-05-15T10:36:24.802Z,16.38
2023-05-15T10:38:53.241Z,16.12
2023-05-15T10:41:22.966Z,16.26
2023-05-15T10:43:54.096Z,16.60
2023-05-15T10:46:22.495Z,17.07
2023-05-15T10:48:51.781Z,17.30
2023-05-15T10:51:28.209Z,16.98
2023-05-15T10:53:57.039Z,16.82
2023-05-15T10:56:32.900Z,16.80
2023-05-15T10:59:08.881Z,16.70
2023-05-15T11:01:39.394Z,16.61
2023-05-15T11:04:18.772Z,16.74
2023-05-15T11:06:49.979Z,16.74
2023-05-15T11:09:27.923Z,16.78
2023-05-15T11:12:01.947Z,16.58
2023-05-15T11:14:42.477Z,16.53
2023-05-15T11:17:12.471Z,16.62
2023-05-15T11:19:49.767Z,16.58
2023-05-15T11:22:19.898Z,16.58
2023-05-15T11:24:52.169Z,16.56
2023-05-15T11:27:26.291Z,16.71
2023-05-15T11:30:13.056Z,16.71
2023-05-15T11:32:45.530Z,16.80
2023-05-15T11:35:23.781Z,16.98
2023-05-15T11:38:00.046Z,17.02
2023-05-15T11:40:46.539Z,17.15
2023-05-15T11:43:21.643Z,17.02
2023-05-15T11:45:56.179Z,17.01
2023-05-15T11:48:40.273Z,17.08
2023-05-15T11:51:18.168Z,17.21
2023-05-15T11:53:46.927Z,17.35
2023-05-15T11:56:19.502Z,17.41
2023-05-15T11:58:54.475Z,17.52
2023-05-15T12:01:22.753Z,17.71
2023-05-15T12:03:52.250Z,17.86
2023-05-15T12:06:20.819Z,17.83
2023-05-15T12:08:53.139Z,17.91
2023-05-15T12:11:23.504Z,18.02
2023-05-15T12:13:53.772Z,18.13
2023-05-15T12:16:28.855Z,18.30
2023-05-15T12:18:57.290Z,18.31
2023-05-15T12:21:28.940Z,18.29
2023-05-15T12:24:07.208Z,18.32
2023-05-15T12:26:37.268Z,18.32
2023-05-15T12:29:06.178Z,18.41
2023-05-15T12:31:35.815Z,18.41
2023-05-15T12:34:04.695Z,18.54
2023-05-15T12:36:32.772Z,18.51
2023-05-15T12:39:07.851Z,18.44
2023-05-15T12:41:37.912Z,18.36
2023-05-15T12:44:06.618Z,18.46
2023-05-15T12:46:35.071Z,18.41
2023-05-15T12:49:04.268Z,18.41
2023-05-15T12:51:32.349Z,18.41
2023-05-15T12:54:00.346Z,18.23
2023-05-15T12:56:30.060Z,18.34
2023-05-15T12:58:58.234Z,18.44
2023-05-15T13:01:26.564Z,18.42
2023-05-15T13:03:55.432Z,18.54
2023-05-15T13:06:29.323Z,18.44
2023-05-15T13:09:07.635Z,18.36
2023-05-15T13:11:35.847Z,18.48
2023-05-15T13:14:09.706Z,18.49
2023-05-15T13:16:38.898Z,18.37
2023-05-15T13:19:07.302Z,18.23
2023-05-15T13:21:36.086Z,18.46
2023-05-15T13:24:05.053Z,18.43
2023-05-15T13:26:33.687Z,18.48
2023-05-15T13:29:01.809Z,18.41
2023-05-15T13:31:30.362Z,18.48
2023-05-15T13:33:58.425Z,18.37
2023-05-15T13:36:26.585Z,18.23
2023-05-15T13:38:54.877Z,18.21
2023-05-15T13:41:23.358Z,18.37
2023-05-15T13:43:51.658Z,18.59
2023-05-15T13:46:20.350Z,18.68
2023-05-15T13:48:48.633Z,18.66
2023-05-15T13:51:16.764Z,18.60
2023-05-15T13:53:45.146Z,18.65
2023-05-15T13:56:13.225Z,18.54
2023-05-15T13:58:42.487Z,18.55
2023-05-15T14:01:10.959Z,18.59
2023-05-15T14:03:39.568Z,18.39
2023-05-15T14:06:07.991Z,18.56
2023-05-15T14:08:35.987Z,18.66
2023-05-15T14:11:04.425Z,18.74
2023-05-15T14:13:34.237Z,18.90
2023-05-15T14:16:02.352Z,18.87
2023-05-15T14:18:31.971Z,18.87
2023-05-15T14:21:01.600Z,18.96
2023-05-15T14:23:29.710Z,19.02
2023-05-15T14:25:58.393Z,19.00
2023-05-15T14:28:26.622Z,19.05
2023-05-15T14:30:54.689Z,18.94
2023-05-15T14:33:23.189Z,19.03
2023-05-15T14:35:51.554Z,19.06
2023-05-15T14:38:19.531Z,19.05
2023-05-15T14:40:47.833Z,19.13
2023-05-15T14:43:15.974Z,19.10
2023-05-15T14:45:44.033Z,19.05
2023-05-15T14:48:12.572Z,19.15
2023-05-15T14:50:41.182Z,19.08
2023-05-15T14:53:09.200Z,18.99
2023-05-15T14:55:37.592Z,18.85
2023-05-15T14:58:05.710Z,18.79
2023-05-15T15:00:33.781Z,18.62
2023-05-15T15:03:02.699Z,18.67
2023-05-15T15:05:31.003Z,18.41
2023-05-15T15:08:04.901Z,18.50
2023-05-15T15:10:35.117Z,18.52
2023-05-15T15:13:03.914Z,18.21
2023-05-15T15:15:33.460Z,18.35
2023-05-15T15:18:02.293Z,18.13
2023-05-15T15:20:30.660Z,18.12
2023-05-15T15:22:59.089Z,18.05
2023-05-15T15:25:27.992Z,18.06
2023-05-15T15:27:57.032Z,18.11
2023-05-15T15:30:25.417Z,18.12
2023-05-15T15:32:54.773Z,17.99
2023-05-15T15:35:23.373Z,17.92
2023-05-15T15:37:53.037Z,17.94
2023-05-15T15:40:23.726Z,17.97
2023-05-15T15:42:54.178Z,17.90
2023-05-15T15:45:22.788Z,17.83
2023-05-15T15:47:50.897Z,17.86
2023-05-15T15:50:18.934Z,17.83
2023-05-15T15:52:47.405Z,17.60
2023-05-15T15:55:15.913Z,17.60
2023-05-15T15:57:44.025Z,17.59
2023-05-15T16:00:12.888Z,17.59
2023-05-15T16:02:41.565Z,17.46
2023-05-15T16:05:09.991Z,17.47
2023-05-15T16:07:39.226Z,17.47
2023-05-15T16:10:27.494Z,17.40
2023-05-15T16:12:55.739Z,17.42
2023-05-15T16:15:24.404Z,17.34
2023-05-15T16:17:53.817Z,17.24
2023-05-15T16:20:23.921Z,17.20
2023-05-15T16:22:52.746Z,17.19
2023-05-15T16:25:20.775Z,17.09
2023-05-15T16:27:49.240Z,17.08
2023-05-15T16:30:17.642Z,16.95
2023-05-15T16:32:45.754Z,17.01
2023-05-15T16:35:13.884Z,16.82
2023-05-15T16:37:42.329Z,16.86
2023-05-15T16:40:10.799Z,16.81
2023-05-15T16:42:38.964Z,16.86
2023-05-15T16:45:08.034Z,16.82
2023-05-15T16:47:39.673Z,16.69
2023-05-15T16:50:08.620Z,16.59
2023-05-15T16:52:38.879Z,16.65
2023-05-15T16:55:07.793Z,16.61
2023-05-15T16:57:36.073Z,16.63
2023-05-15T17:00:08.380Z,16.68
2023-05-15T17:02:37.297Z,16.57
2023-05-15T17:05:08.906Z,16.54
2023-05-15T17:07:38.501Z,16.52
2023-05-15T17:10:08.073Z,16.49
2023-05-15T17:12:37.050Z,16.46
2023-05-15T17:15:05.945Z,16.48
2023-05-15T17:17:35.133Z,16.41
2023-05-15T17:20:04.115Z,16.34
2023-05-15T17:22:32.671Z,16.30
2023-05-15T17:25:00.972Z,16.29
2023-05-15T17:27:29.356Z,16.26
2023-05-15T17:29:57.799Z,16.22
2023-05-15T17:32:26.153Z,16.19
2023-05-15T17:34:54.368Z,16.16
2023-05-15T17:37:22.774Z,16.10
2023-05-15T17:39:51.325Z,16.05
2023-05-15T17:42:19.375Z,16.05
2023-05-15T17:44:48.019Z,16.02
2023-05-15T17:47:16.146Z,15.99
2023-05-15T17:49:44.184Z,15.93
2023-05-15T17:52:12.954Z,15.86
2023-05-15T17:54:41.169Z,15.81
2023-05-15T17:57:09.401Z,15.74
2023-05-15T17:59:37.872Z,15.71
2023-05-15T18:02:06.262Z,15.62
2023-05-15T18:04:34.744Z,15.62
2023-05-15T18:07:02.970Z,15.57
2023-05-15T18:09:31.087Z,15.50
2023-05-15T18:11:59.646Z,15.45
2023-05-15T18:14:27.936Z,15.39
2023-05-15T18:16:56.330Z,15.31
2023-05-15T18:19:24.684Z,15.20
2023-05-15T18:21:52.879Z,15.14
2023-05-15T18:24:21.047Z,15.10
2023-05-15T18:26:49.404Z,15.08
2023-05-15T18:29:17.533Z,15.02
2023-05-15T18:31:45.705Z,14.97
2023-05-15T18:34:14.051Z,14.93
2023-05-15T18:36:42.530Z,14.89
2023-05-15T18:39:10.557Z,14.81
2023-05-15T18:41:39.113Z,14.77
2023-05-15T18:44:07.425Z,14.76
2023-05-15T18:46:36.172Z,14.71
2023-05-15T18:49:07.476Z,14.68
2023-05-15T18:51:35.779Z,14.65
2023-05-15T18:54:04.144Z,14.63
2023-05-15T18:56:33.466Z,14.63
2023-05-15T18:59:01.827Z,14.53
2023-05-15T19:01:30.120Z,14.57
2023-05-15T19:03:58.737Z,14.56
2023-05-15T19:06:26.745Z,14.58
2023-05-15T19:08:54.800Z,14.54
2023-05-15T19:11:23.259Z,14.51
2023-05-15T19:13:51.232Z,14.46
2023-05-15T19:16:19.332Z,14.43
2023-05-15T19:18:47.716Z,14.40
2023-05-15T19:21:15.788Z,14.35
2023-05-15T19:23:43.961Z,14.34
2023-05-15T19:26:12.549Z,14.30
2023-05-15T19:28:40.647Z,14.26
2023-05-15T19:31:20.504Z,14.21
2023-05-15T19:33:56.030Z,14.18
2023-05-15T19:36:24.599Z,14.17
2023-05-15T19:38:53.041Z,14.12
2023-05-15T19:41:22.386Z,14.10
2023-05-15T19:43:53.557Z,14.05
2023-05-15T19:46:22.942Z,13.99
2023-05-15T19:48:51.235Z,13.97
2023-05-15T19:51:19.302Z,13.98
2023-05-15T19:53:47.666Z,13.96
2023-05-15T19:56:15.890Z,13.86
2023-05-15T19:58:43.966Z,13.78
2023-05-15T20:01:12.462Z,13.77
2023-05-15T20:03:41.026Z,13.79
2023-05-15T20:06:10.600Z,13.83
2023-05-15T20:08:39.196Z,13.83
2023-05-15T20:11:07.715Z,13.76
2023-05-15T20:13:37.453Z,13.59
2023-05-15T20:16:10.449Z,13.59
2023-05-15T20:18:39.961Z,13.52
2023-05-15T20:21:08.122Z,13.42
2023-05-15T20:23:36.198Z,13.43
2023-05-15T20:26:07.609Z,13.27
2023-05-15T20:28:35.990Z,13.20
2023-05-15T20:31:04.397Z,13.11
2023-05-15T20:33:32.496Z,13.16
2023-05-15T20:36:01.022Z,13.04
2023-05-15T20:38:29.981Z,12.89
2023-05-15T20:40:58.053Z,12.80
2023-05-15T20:43:26.176Z,12.78
2023-05-15T20:45:54.727Z,12.83
2023-05-15T20:48:22.725Z,12.73
2023-05-15T20:50:53.084Z,12.76
2023-05-15T20:53:21.963Z,12.72
2023-05-15T20:55:49.983Z,12.65
2023-05-15T20:58:18.128Z,12.64
2023-05-15T21:00:46.448Z,12.67
2023-05-15T21:03:15.789Z,12.67
2023-05-15T21:05:44.545Z,12.70
2023-05-15T21:08:12.942Z,12.65
2023-05-15T21:10:41.012Z,12.68
2023-05-15T21:13:09.129Z,12.76
2023-05-15T21:15:37.455Z,12.90
2023-05-15T21:18:05.747Z,13.04
2023-05-15T21:20:35.198Z,13.07
2023-05-15T21:23:03.723Z,13.02
2023-05-15T21:25:33.033Z,12.92
2023-05-15T21:28:01.301Z,12.84
2023-05-15T21:30:29.941Z,12.78
2023-05-15T21:32:58.050Z,12.76
2023-05-15T21:35:28.905Z,12.74
2023-05-15T21:37:57.690Z,12.70
2023-05-15T21:40:26.156Z,12.77
2023-05-15T21:42:54.342Z,12.80
2023-05-15T21:45:22.689Z,12.70
2023-05-15T21:47:50.772Z,12.78
2023-05-15T21:50:19.084Z,12.72
2023-05-15T21:52:50.311Z,12.76
2023-05-15T21:55:19.198Z,12.77
2023-05-15T21:57:47.603Z,12.78
2023-05-15T22:00:16.328Z,12.78
2023-05-15T22:02:44.733Z,12.76
2023-05-15T22:05:13.178Z,12.77
2023-05-15T22:07:41.334Z,12.78
2023-05-15T22:10:13.800Z,12.84
2023-05-15T22:13:04.004Z,12.85
2023-05-15T22:15:32.434Z,12.87
2023-05-15T22:18:01.766Z,12.91
2023-05-15T22:20:30.007Z,12.93
2023-05-15T22:22:58.427Z,12.98
2023-05-15T22:25:26.683Z,13.11
2023-05-15T22:27:54.627Z,13.08
2023-05-15T22:30:22.933Z,13.13
2023-05-15T22:32:51.433Z,13.04
2023-05-15T22:35:20.349Z,13.13
2023-05-15T22:37:49.072Z,13.05
2023-05-15T22:40:17.560Z,13.06
2023-05-15T22:42:50.013Z,13.02
2023-05-15T22:45:18.874Z,13.05
2023-05-15T22:47:47.489Z,13.06
2023-05-15T22:50:15.692Z,13.18
2023-05-15T22:52:44.318Z,13.14
2023-05-15T22:55:17.591Z,13.10
2023-05-15T22:57:45.991Z,13.07
2023-05-15T23:00:14.749Z,13.04
2023-05-15T23:02:44.788Z,13.04
2023-05-15T23:05:13.533Z,13.01
2023-05-15T23:07:52.842Z,12.99
2023-05-15T23:10:21.929Z,12.94
2023-05-15T23:12:50.673Z,12.92
2023-05-15T23:15:18.846Z,12.95
2023-05-15T23:17:47.297Z,12.93
2023-05-15T23:20:15.517Z,12.91
2023-05-15T23:22:43.618Z,12.87
2023-05-15T23:25:12.236Z,12.82
2023-05-15T23:27:40.396Z,12.80
2023-05-15T23:30:09.725Z,12.77
2023-05-15T23:32:38.335Z,12.75
2023-05-15T23:35:06.817Z,12.75
2023-05-15T23:37:34.871Z,12.69
2023-05-15T23:40:05.390Z,12.68
2023-05-15T23:42:33.463Z,12.57
2023-05-15T23:45:01.637Z,12.63
2023-05-15T23:47:30.291Z,12.67
2023-05-15T23:49:58.431Z,12.70
2023-05-15T23:52:26.547Z,12.69
2023-05-15T23:54:55.026Z,12.68
2023-05-15T23:57:23.052Z,12.71
2023-05-15T23:59:51.308Z,12.72
